sensor_id;sensor_type;location;lat;lon;timestamp;P1;durP1;ratioP1;P2;durP2;ratioP2
22176;SDS011;11254;50.098;8.726;2022-09-17T00:01:24;6.50;;;1.75;;
22176;SDS011;11254;50.098;8.726;2022-09-17T00:03:54;7.72;;;1.70;;
22176;SDS011;11254;50.098;8.726;2022-09-17T00:06:24;7.47;;;1.75;;
22176;SDS011;11254;50.098;8.726;2022-09-17T00:08:53;4.43;;;1.77;;
22176;SDS011;11254;50.098;8.726;2022-09-17T00:11:22;9.35;;;2.08;;
22176;SDS011;11254;50.098;8.726;2022-09-17T00:13:53;6.43;;;1.83;;
22176;SDS011;11254;50.098;8.726;2022-09-17T00:16:25;6.07;;;1.63;;
22176;SDS011;11254;50.098;8.726;2022-09-17T00:18:55;7.10;;;1.60;;
22176;SDS011;11254;50.098;8.726;2022-09-17T00:21:24;4.15;;;1.42;;
22176;SDS011;11254;50.098;8.726;2022-09-17T00:23:53;5.43;;;1.65;;
22176;SDS011;11254;50.098;8.726;2022-09-17T00:26:22;3.50;;;1.13;;
22176;SDS011;11254;50.098;8.726;2022-09-17T00:28:52;5.25;;;1.20;;
22176;SDS011;11254;50.098;8.726;2022-09-17T00:31:22;7.13;;;1.35;;
22176;SDS011;11254;50.098;8.726;2022-09-17T00:33:50;7.40;;;1.27;;
22176;SDS011;11254;50.098;8.726;2022-09-17T00:36:20;6.43;;;1.73;;
22176;SDS011;11254;50.098;8.726;2022-09-17T00:38:48;7.00;;;1.30;;
22176;SDS011;11254;50.098;8.726;2022-09-17T00:41:17;3.67;;;1.08;;
22176;SDS011;11254;50.098;8.726;2022-09-17T00:43:47;9.32;;;1.50;;
22176;SDS011;11254;50.098;8.726;2022-09-17T00:46:22;4.55;;;1.35;;
22176;SDS011;11254;50.098;8.726;2022-09-17T00:48:56;3.75;;;0.90;;
22176;SDS011;11254;50.098;8.726;2022-09-17T00:51:27;8.13;;;1.27;;
22176;SDS011;11254;50.098;8.726;2022-09-17T00:53:59;5.07;;;0.80;;
22176;SDS011;11254;50.098;8.726;2022-09-17T00:56:30;4.65;;;1.00;;
22176;SDS011;11254;50.098;8.726;2022-09-17T00:59:00;6.20;;;1.10;;
22176;SDS011;11254;50.098;8.726;2022-09-17T01:01:30;3.10;;;0.88;;
22176;SDS011;11254;50.098;8.726;2022-09-17T01:03:58;5.93;;;0.98;;
22176;SDS011;11254;50.098;8.726;2022-09-17T01:06:28;6.65;;;1.13;;
22176;SDS011;11254;50.098;8.726;2022-09-17T01:09:03;5.85;;;1.38;;
22176;SDS011;11254;50.098;8.726;2022-09-17T01:11:42;4.57;;;1.00;;
22176;SDS011;11254;50.098;8.726;2022-09-17T01:14:25;4.28;;;1.08;;
22176;SDS011;11254;50.098;8.726;2022-09-17T01:17:06;3.90;;;1.10;;
22176;SDS011;11254;50.098;8.726;2022-09-17T01:19:47;7.93;;;1.58;;
22176;SDS011;11254;50.098;8.726;2022-09-17T01:22:45;4.80;;;1.25;;
22176;SDS011;11254;50.098;8.726;2022-09-17T01:25:28;3.72;;;1.05;;
22176;SDS011;11254;50.098;8.726;2022-09-17T01:28:12;7.20;;;1.20;;
22176;SDS011;11254;50.098;8.726;2022-09-17T01:31:04;5.65;;;1.20;;
22176;SDS011;11254;50.098;8.726;2022-09-17T01:33:45;5.97;;;1.05;;
22176;SDS011;11254;50.098;8.726;2022-09-17T01:36:21;4.03;;;1.05;;
22176;SDS011;11254;50.098;8.726;2022-09-17T01:39:04;5.60;;;0.80;;
22176;SDS011;11254;50.098;8.726;2022-09-17T01:41:39;4.47;;;0.98;;
22176;SDS011;11254;50.098;8.726;2022-09-17T01:44:13;2.83;;;0.85;;
22176;SDS011;11254;50.098;8.726;2022-09-17T01:46:50;4.55;;;0.90;;
22176;SDS011;11254;50.098;8.726;2022-09-17T01:49:22;7.90;;;1.60;;
22176;SDS011;11254;50.098;8.726;2022-09-17T01:51:51;5.32;;;0.85;;
22176;SDS011;11254;50.098;8.726;2022-09-17T01:54:22;5.25;;;1.00;;
22176;SDS011;11254;50.098;8.726;2022-09-17T01:56:54;7.88;;;1.20;;
22176;SDS011;11254;50.098;8.726;2022-09-17T01:59:25;3.63;;;1.10;;
22176;SDS011;11254;50.098;8.726;2022-09-17T02:01:59;4.72;;;1.08;;
22176;SDS011;11254;50.098;8.726;2022-09-17T02:04:34;7.50;;;0.95;;
22176;SDS011;11254;50.098;8.726;2022-09-17T02:07:06;9.57;;;1.27;;
22176;SDS011;11254;50.098;8.726;2022-09-17T02:09:42;2.20;;;0.80;;
22176;SDS011;11254;50.098;8.726;2022-09-17T02:12:14;8.75;;;1.00;;
22176;SDS011;11254;50.098;8.726;2022-09-17T02:14:47;5.13;;;0.80;;
22176;SDS011;11254;50.098;8.726;2022-09-17T02:17:21;3.40;;;0.98;;
22176;SDS011;11254;50.098;8.726;2022-09-17T02:19:53;4.57;;;1.00;;
22176;SDS011;11254;50.098;8.726;2022-09-17T02:22:24;5.63;;;1.10;;
22176;SDS011;11254;50.098;8.726;2022-09-17T02:24:59;5.32;;;1.15;;
22176;SDS011;11254;50.098;8.726;2022-09-17T02:27:39;6.63;;;1.08;;
22176;SDS011;11254;50.098;8.726;2022-09-17T02:30:14;7.40;;;1.48;;
22176;SDS011;11254;50.098;8.726;2022-09-17T02:32:44;5.15;;;0.90;;
22176;SDS011;11254;50.098;8.726;2022-09-17T02:35:13;6.32;;;1.40;;
22176;SDS011;11254;50.098;8.726;2022-09-17T02:37:41;4.63;;;1.00;;
22176;SDS011;11254;50.098;8.726;2022-09-17T02:40:09;8.38;;;1.17;;
22176;SDS011;11254;50.098;8.726;2022-09-17T02:42:45;3.42;;;1.00;;
22176;SDS011;11254;50.098;8.726;2022-09-17T02:45:28;4.78;;;1.20;;
22176;SDS011;11254;50.098;8.726;2022-09-17T02:48:10;9.95;;;1.70;;
22176;SDS011;11254;50.098;8.726;2022-09-17T02:50:53;5.00;;;1.10;;
22176;SDS011;11254;50.098;8.726;2022-09-17T02:53:34;6.75;;;1.35;;
22176;SDS011;11254;50.098;8.726;2022-09-17T02:56:09;3.28;;;1.20;;
22176;SDS011;11254;50.098;8.726;2022-09-17T02:58:46;7.10;;;1.33;;
22176;SDS011;11254;50.098;8.726;2022-09-17T03:01:21;5.88;;;1.25;;
22176;SDS011;11254;50.098;8.726;2022-09-17T03:03:56;9.68;;;1.65;;
22176;SDS011;11254;50.098;8.726;2022-09-17T03:06:26;4.78;;;1.38;;
22176;SDS011;11254;50.098;8.726;2022-09-17T03:08:54;3.35;;;1.23;;
22176;SDS011;11254;50.098;8.726;2022-09-17T03:11:22;5.88;;;1.60;;
22176;SDS011;11254;50.098;8.726;2022-09-17T03:13:50;4.55;;;1.80;;
22176;SDS011;11254;50.098;8.726;2022-09-17T03:16:18;6.00;;;1.65;;
22176;SDS011;11254;50.098;8.726;2022-09-17T03:18:46;8.80;;;1.60;;
22176;SDS011;11254;50.098;8.726;2022-09-17T03:21:15;3.70;;;1.25;;
22176;SDS011;11254;50.098;8.726;2022-09-17T03:23:43;4.35;;;1.52;;
22176;SDS011;11254;50.098;8.726;2022-09-17T03:26:13;5.35;;;1.52;;
22176;SDS011;11254;50.098;8.726;2022-09-17T03:28:40;6.85;;;1.40;;
22176;SDS011;11254;50.098;8.726;2022-09-17T03:31:08;11.00;;;1.50;;
22176;SDS011;11254;50.098;8.726;2022-09-17T03:33:37;7.47;;;1.95;;
22176;SDS011;11254;50.098;8.726;2022-09-17T03:36:05;4.88;;;1.55;;
22176;SDS011;11254;50.098;8.726;2022-09-17T03:38:34;5.45;;;1.83;;
22176;SDS011;11254;50.098;8.726;2022-09-17T03:41:04;4.40;;;1.55;;
22176;SDS011;11254;50.098;8.726;2022-09-17T03:43:33;7.63;;;1.48;;
22176;SDS011;11254;50.098;8.726;2022-09-17T03:46:01;6.03;;;1.70;;
22176;SDS011;11254;50.098;8.726;2022-09-17T03:48:29;5.80;;;1.58;;
22176;SDS011;11254;50.098;8.726;2022-09-17T03:51:02;6.82;;;1.70;;
22176;SDS011;11254;50.098;8.726;2022-09-17T03:53:30;7.65;;;2.08;;
22176;SDS011;11254;50.098;8.726;2022-09-17T03:56:01;9.40;;;2.08;;
22176;SDS011;11254;50.098;8.726;2022-09-17T03:58:30;8.55;;;1.88;;
22176;SDS011;11254;50.098;8.726;2022-09-17T04:00:59;5.78;;;1.65;;
22176;SDS011;11254;50.098;8.726;2022-09-17T04:03:29;4.93;;;1.58;;
22176;SDS011;11254;50.098;8.726;2022-09-17T04:05:57;7.28;;;2.20;;
22176;SDS011;11254;50.098;8.726;2022-09-17T04:08:25;4.18;;;1.55;;
22176;SDS011;11254;50.098;8.726;2022-09-17T04:10:53;7.05;;;1.65;;
22176;SDS011;11254;50.098;8.726;2022-09-17T04:13:22;7.15;;;1.80;;
22176;SDS011;11254;50.098;8.726;2022-09-17T04:15:50;5.07;;;1.70;;
22176;SDS011;11254;50.098;8.726;2022-09-17T04:18:18;9.23;;;1.67;;
22176;SDS011;11254;50.098;8.726;2022-09-17T04:20:46;5.30;;;1.58;;
22176;SDS011;11254;50.098;8.726;2022-09-17T04:23:14;6.28;;;1.92;;
22176;SDS011;11254;50.098;8.726;2022-09-17T04:25:42;4.38;;;1.52;;
22176;SDS011;11254;50.098;8.726;2022-09-17T04:28:10;6.40;;;1.77;;
22176;SDS011;11254;50.098;8.726;2022-09-17T04:30:40;6.85;;;1.88;;
22176;SDS011;11254;50.098;8.726;2022-09-17T04:33:08;10.13;;;1.75;;
22176;SDS011;11254;50.098;8.726;2022-09-17T04:35:37;6.32;;;2.15;;
22176;SDS011;11254;50.098;8.726;2022-09-17T04:38:05;9.20;;;2.00;;
22176;SDS011;11254;50.098;8.726;2022-09-17T04:40:33;6.95;;;1.85;;
22176;SDS011;11254;50.098;8.726;2022-09-17T04:43:01;4.95;;;1.70;;
22176;SDS011;11254;50.098;8.726;2022-09-17T04:45:29;7.15;;;2.15;;
22176;SDS011;11254;50.098;8.726;2022-09-17T04:48:00;8.60;;;2.08;;
22176;SDS011;11254;50.098;8.726;2022-09-17T04:50:28;5.28;;;1.90;;
22176;SDS011;11254;50.098;8.726;2022-09-17T04:52:56;8.77;;;2.00;;
22176;SDS011;11254;50.098;8.726;2022-09-17T04:55:24;9.25;;;2.17;;
22176;SDS011;11254;50.098;8.726;2022-09-17T04:57:52;8.40;;;2.40;;
22176;SDS011;11254;50.098;8.726;2022-09-17T05:00:21;5.95;;;1.67;;
22176;SDS011;11254;50.098;8.726;2022-09-17T05:02:51;4.18;;;2.03;;
22176;SDS011;11254;50.098;8.726;2022-09-17T05:05:22;5.63;;;2.05;;
22176;SDS011;11254;50.098;8.726;2022-09-17T05:07:50;7.65;;;2.38;;
22176;SDS011;11254;50.098;8.726;2022-09-17T05:10:18;7.20;;;2.08;;
22176;SDS011;11254;50.098;8.726;2022-09-17T05:12:48;7.85;;;2.30;;
22176;SDS011;11254;50.098;8.726;2022-09-17T05:15:16;10.82;;;2.50;;
22176;SDS011;11254;50.098;8.726;2022-09-17T05:17:45;7.18;;;2.28;;
22176;SDS011;11254;50.098;8.726;2022-09-17T05:20:13;7.40;;;2.10;;
22176;SDS011;11254;50.098;8.726;2022-09-17T05:22:44;6.35;;;2.28;;
22176;SDS011;11254;50.098;8.726;2022-09-17T05:25:14;9.45;;;2.45;;
22176;SDS011;11254;50.098;8.726;2022-09-17T05:27:44;9.55;;;2.08;;
22176;SDS011;11254;50.098;8.726;2022-09-17T05:30:12;6.20;;;2.10;;
22176;SDS011;11254;50.098;8.726;2022-09-17T05:32:41;8.00;;;1.90;;
22176;SDS011;11254;50.098;8.726;2022-09-17T05:35:09;7.95;;;2.00;;
22176;SDS011;11254;50.098;8.726;2022-09-17T05:37:37;7.47;;;2.03;;
22176;SDS011;11254;50.098;8.726;2022-09-17T05:40:07;6.55;;;1.98;;
22176;SDS011;11254;50.098;8.726;2022-09-17T05:42:36;6.28;;;1.70;;
22176;SDS011;11254;50.098;8.726;2022-09-17T05:45:04;7.43;;;2.33;;
22176;SDS011;11254;50.098;8.726;2022-09-17T05:47:33;6.53;;;2.13;;
22176;SDS011;11254;50.098;8.726;2022-09-17T05:50:01;6.53;;;2.45;;
22176;SDS011;11254;50.098;8.726;2022-09-17T05:52:29;11.18;;;3.08;;
22176;SDS011;11254;50.098;8.726;2022-09-17T05:54:57;9.85;;;2.55;;
22176;SDS011;11254;50.098;8.726;2022-09-17T05:57:28;5.68;;;2.40;;
22176;SDS011;11254;50.098;8.726;2022-09-17T05:59:56;9.65;;;2.80;;
22176;SDS011;11254;50.098;8.726;2022-09-17T06:02:24;8.20;;;2.33;;
22176;SDS011;11254;50.098;8.726;2022-09-17T06:04:53;6.47;;;2.30;;
22176;SDS011;11254;50.098;8.726;2022-09-17T06:07:21;12.73;;;3.58;;
22176;SDS011;11254;50.098;8.726;2022-09-17T06:09:49;11.32;;;2.70;;
22176;SDS011;11254;50.098;8.726;2022-09-17T06:12:17;8.13;;;2.53;;
22176;SDS011;11254;50.098;8.726;2022-09-17T06:14:47;9.48;;;2.88;;
22176;SDS011;11254;50.098;8.726;2022-09-17T06:17:15;11.25;;;3.10;;
22176;SDS011;11254;50.098;8.726;2022-09-17T06:19:47;7.13;;;2.72;;
22176;SDS011;11254;50.098;8.726;2022-09-17T06:22:16;9.77;;;3.10;;
22176;SDS011;11254;50.098;8.726;2022-09-17T06:24:46;6.93;;;2.97;;
22176;SDS011;11254;50.098;8.726;2022-09-17T06:27:14;8.65;;;3.15;;
22176;SDS011;11254;50.098;8.726;2022-09-17T06:29:42;9.50;;;3.50;;
22176;SDS011;11254;50.098;8.726;2022-09-17T06:32:11;10.05;;;3.55;;
22176;SDS011;11254;50.098;8.726;2022-09-17T06:34:41;7.03;;;3.30;;
22176;SDS011;11254;50.098;8.726;2022-09-17T06:37:09;9.30;;;3.55;;
22176;SDS011;11254;50.098;8.726;2022-09-17T06:39:37;9.95;;;4.20;;
22176;SDS011;11254;50.098;8.726;2022-09-17T06:42:05;14.05;;;3.83;;
22176;SDS011;11254;50.098;8.726;2022-09-17T06:44:34;7.85;;;2.97;;
22176;SDS011;11254;50.098;8.726;2022-09-17T06:47:02;8.85;;;4.13;;
22176;SDS011;11254;50.098;8.726;2022-09-17T06:49:31;12.13;;;4.10;;
22176;SDS011;11254;50.098;8.726;2022-09-17T06:52:00;11.02;;;4.50;;
22176;SDS011;11254;50.098;8.726;2022-09-17T06:54:28;9.73;;;4.03;;
22176;SDS011;11254;50.098;8.726;2022-09-17T06:56:56;7.88;;;3.70;;
22176;SDS011;11254;50.098;8.726;2022-09-17T06:59:24;10.20;;;3.70;;
22176;SDS011;11254;50.098;8.726;2022-09-17T07:01:53;8.10;;;3.45;;
22176;SDS011;11254;50.098;8.726;2022-09-17T07:04:21;10.30;;;4.72;;
22176;SDS011;11254;50.098;8.726;2022-09-17T07:06:51;10.48;;;4.30;;
22176;SDS011;11254;50.098;8.726;2022-09-17T07:09:19;11.13;;;4.47;;
22176;SDS011;11254;50.098;8.726;2022-09-17T07:11:47;12.77;;;4.53;;
22176;SDS011;11254;50.098;8.726;2022-09-17T07:14:15;7.85;;;4.32;;
22176;SDS011;11254;50.098;8.726;2022-09-17T07:16:44;12.88;;;4.57;;
22176;SDS011;11254;50.098;8.726;2022-09-17T07:19:12;10.02;;;4.68;;
22176;SDS011;11254;50.098;8.726;2022-09-17T07:21:40;15.48;;;4.45;;
22176;SDS011;11254;50.098;8.726;2022-09-17T07:24:09;9.95;;;4.43;;
22176;SDS011;11254;50.098;8.726;2022-09-17T07:26:37;13.07;;;3.83;;
22176;SDS011;11254;50.098;8.726;2022-09-17T07:29:05;12.73;;;3.83;;
22176;SDS011;11254;50.098;8.726;2022-09-17T07:31:33;10.57;;;3.80;;
22176;SDS011;11254;50.098;8.726;2022-09-17T07:34:01;10.77;;;3.75;;
22176;SDS011;11254;50.098;8.726;2022-09-17T07:36:30;15.82;;;3.65;;
22176;SDS011;11254;50.098;8.726;2022-09-17T07:38:57;13.45;;;3.95;;
22176;SDS011;11254;50.098;8.726;2022-09-17T07:41:28;11.77;;;3.53;;
22176;SDS011;11254;50.098;8.726;2022-09-17T07:43:56;10.55;;;3.42;;
22176;SDS011;11254;50.098;8.726;2022-09-17T07:46:24;9.70;;;3.78;;
22176;SDS011;11254;50.098;8.726;2022-09-17T07:48:52;9.13;;;3.00;;
22176;SDS011;11254;50.098;8.726;2022-09-17T07:51:21;9.80;;;2.58;;
22176;SDS011;11254;50.098;8.726;2022-09-17T07:53:53;9.52;;;2.60;;
22176;SDS011;11254;50.098;8.726;2022-09-17T07:56:23;6.85;;;2.90;;
22176;SDS011;11254;50.098;8.726;2022-09-17T07:58:54;8.05;;;3.45;;
22176;SDS011;11254;50.098;8.726;2022-09-17T08:01:22;9.68;;;3.03;;
22176;SDS011;11254;50.098;8.726;2022-09-17T08:03:52;32.00;;;6.30;;
22176;SDS011;11254;50.098;8.726;2022-09-17T08:06:21;11.02;;;2.97;;
22176;SDS011;11254;50.098;8.726;2022-09-17T08:08:51;7.30;;;2.70;;
22176;SDS011;11254;50.098;8.726;2022-09-17T08:11:20;66.95;;;7.75;;
22176;SDS011;11254;50.098;8.726;2022-09-17T08:14:12;7.43;;;2.72;;
22176;SDS011;11254;50.098;8.726;2022-09-17T08:16:41;8.85;;;2.60;;
22176;SDS011;11254;50.098;8.726;2022-09-17T08:19:10;57.42;;;8.90;;
22176;SDS011;11254;50.098;8.726;2022-09-17T08:21:38;8.02;;;3.00;;
22176;SDS011;11254;50.098;8.726;2022-09-17T08:24:06;8.88;;;2.97;;
22176;SDS011;11254;50.098;8.726;2022-09-17T08:26:35;8.98;;;3.92;;
22176;SDS011;11254;50.098;8.726;2022-09-17T08:29:03;11.63;;;4.15;;
22176;SDS011;11254;50.098;8.726;2022-09-17T08:31:33;12.95;;;2.92;;
22176;SDS011;11254;50.098;8.726;2022-09-17T08:34:05;11.52;;;3.13;;
22176;SDS011;11254;50.098;8.726;2022-09-17T08:36:35;8.18;;;3.05;;
22176;SDS011;11254;50.098;8.726;2022-09-17T08:39:03;10.05;;;3.08;;
22176;SDS011;11254;50.098;8.726;2022-09-17T08:41:35;10.25;;;3.20;;
22176;SDS011;11254;50.098;8.726;2022-09-17T08:44:23;7.88;;;3.00;;
22176;SDS011;11254;50.098;8.726;2022-09-17T08:46:58;7.85;;;2.75;;
22176;SDS011;11254;50.098;8.726;2022-09-17T08:49:32;8.30;;;2.38;;
22176;SDS011;11254;50.098;8.726;2022-09-17T08:52:08;5.03;;;1.90;;
22176;SDS011;11254;50.098;8.726;2022-09-17T08:55:03;7.20;;;2.28;;
22176;SDS011;11254;50.098;8.726;2022-09-17T08:57:39;7.32;;;2.25;;
22176;SDS011;11254;50.098;8.726;2022-09-17T09:00:24;7.65;;;1.92;;
22176;SDS011;11254;50.098;8.726;2022-09-17T09:03:01;44.92;;;5.68;;
22176;SDS011;11254;50.098;8.726;2022-09-17T09:05:43;4.90;;;2.17;;
22176;SDS011;11254;50.098;8.726;2022-09-17T09:08:13;6.35;;;1.75;;
22176;SDS011;11254;50.098;8.726;2022-09-17T09:10:49;7.60;;;1.70;;
22176;SDS011;11254;50.098;8.726;2022-09-17T09:13:21;7.70;;;1.88;;
22176;SDS011;11254;50.098;8.726;2022-09-17T09:15:53;6.88;;;1.90;;
22176;SDS011;11254;50.098;8.726;2022-09-17T09:18:28;6.35;;;1.67;;
22176;SDS011;11254;50.098;8.726;2022-09-17T09:21:00;6.47;;;1.80;;
22176;SDS011;11254;50.098;8.726;2022-09-17T09:23:36;9.88;;;1.60;;
22176;SDS011;11254;50.098;8.726;2022-09-17T09:26:14;8.80;;;2.28;;
22176;SDS011;11254;50.098;8.726;2022-09-17T09:28:51;5.82;;;2.60;;
22176;SDS011;11254;50.098;8.726;2022-09-17T09:31:46;6.25;;;2.20;;
22176;SDS011;11254;50.098;8.726;2022-09-17T09:34:26;4.82;;;2.28;;
22176;SDS011;11254;50.098;8.726;2022-09-17T09:36:57;7.05;;;2.10;;
22176;SDS011;11254;50.098;8.726;2022-09-17T09:39:36;5.18;;;2.22;;
22176;SDS011;11254;50.098;8.726;2022-09-17T09:42:13;3.67;;;1.77;;
22176;SDS011;11254;50.098;8.726;2022-09-17T09:44:48;7.80;;;2.17;;
22176;SDS011;11254;50.098;8.726;2022-09-17T09:47:19;7.63;;;1.98;;
22176;SDS011;11254;50.098;8.726;2022-09-17T09:50:16;5.97;;;1.75;;
22176;SDS011;11254;50.098;8.726;2022-09-17T09:52:54;4.70;;;1.63;;
22176;SDS011;11254;50.098;8.726;2022-09-17T09:55:34;8.35;;;2.00;;
22176;SDS011;11254;50.098;8.726;2022-09-17T09:58:21;4.78;;;1.90;;
22176;SDS011;11254;50.098;8.726;2022-09-17T10:00:56;10.88;;;5.10;;
22176;SDS011;11254;50.098;8.726;2022-09-17T10:03:26;9.65;;;2.88;;
22176;SDS011;11254;50.098;8.726;2022-09-17T10:05:59;8.48;;;2.80;;
22176;SDS011;11254;50.098;8.726;2022-09-17T10:08:31;10.63;;;2.13;;
22176;SDS011;11254;50.098;8.726;2022-09-17T10:11:01;18.70;;;2.30;;
22176;SDS011;11254;50.098;8.726;2022-09-17T10:13:31;9.25;;;1.52;;
22176;SDS011;11254;50.098;8.726;2022-09-17T10:16:14;7.97;;;1.75;;
22176;SDS011;11254;50.098;8.726;2022-09-17T10:18:44;5.38;;;1.60;;
22176;SDS011;11254;50.098;8.726;2022-09-17T10:21:21;10.95;;;1.70;;
22176;SDS011;11254;50.098;8.726;2022-09-17T10:23:56;5.78;;;1.80;;
22176;SDS011;11254;50.098;8.726;2022-09-17T10:26:25;5.05;;;1.92;;
22176;SDS011;11254;50.098;8.726;2022-09-17T10:28:56;6.18;;;1.50;;
22176;SDS011;11254;50.098;8.726;2022-09-17T10:31:26;6.93;;;1.90;;
22176;SDS011;11254;50.098;8.726;2022-09-17T10:33:55;7.75;;;1.63;;
22176;SDS011;11254;50.098;8.726;2022-09-17T10:36:38;7.38;;;1.70;;
22176;SDS011;11254;50.098;8.726;2022-09-17T10:39:17;6.32;;;1.35;;
22176;SDS011;11254;50.098;8.726;2022-09-17T10:41:53;3.70;;;1.27;;
22176;SDS011;11254;50.098;8.726;2022-09-17T10:44:22;4.00;;;1.55;;
22176;SDS011;11254;50.098;8.726;2022-09-17T10:46:51;9.52;;;1.90;;
22176;SDS011;11254;50.098;8.726;2022-09-17T10:49:26;7.13;;;1.60;;
22176;SDS011;11254;50.098;8.726;2022-09-17T10:52:04;8.15;;;1.33;;
22176;SDS011;11254;50.098;8.726;2022-09-17T10:54:38;6.40;;;1.45;;
22176;SDS011;11254;50.098;8.726;2022-09-17T10:57:20;9.10;;;1.30;;
22176;SDS011;11254;50.098;8.726;2022-09-17T11:00:03;7.90;;;1.70;;
22176;SDS011;11254;50.098;8.726;2022-09-17T11:03:00;4.85;;;1.33;;
22176;SDS011;11254;50.098;8.726;2022-09-17T11:05:54;3.92;;;1.35;;
22176;SDS011;11254;50.098;8.726;2022-09-17T11:08:47;5.40;;;1.50;;
22176;SDS011;11254;50.098;8.726;2022-09-17T11:11:27;5.28;;;1.60;;
22176;SDS011;11254;50.098;8.726;2022-09-17T11:14:06;7.88;;;1.10;;
22176;SDS011;11254;50.098;8.726;2022-09-17T11:16:44;5.88;;;1.90;;
22176;SDS011;11254;50.098;8.726;2022-09-17T11:19:21;5.82;;;1.67;;
22176;SDS011;11254;50.098;8.726;2022-09-17T11:22:00;5.13;;;1.45;;
22176;SDS011;11254;50.098;8.726;2022-09-17T11:24:48;27.00;;;3.80;;
22176;SDS011;11254;50.098;8.726;2022-09-17T11:27:27;6.75;;;1.30;;
22176;SDS011;11254;50.098;8.726;2022-09-17T11:30:16;10.15;;;1.23;;
22176;SDS011;11254;50.098;8.726;2022-09-17T11:32:50;5.57;;;1.45;;
22176;SDS011;11254;50.098;8.726;2022-09-17T11:35:39;4.25;;;1.00;;
22176;SDS011;11254;50.098;8.726;2022-09-17T11:38:13;8.40;;;1.38;;
22176;SDS011;11254;50.098;8.726;2022-09-17T11:40:49;4.45;;;1.35;;
22176;SDS011;11254;50.098;8.726;2022-09-17T11:43:26;4.05;;;1.23;;
22176;SDS011;11254;50.098;8.726;2022-09-17T11:45:58;6.00;;;1.45;;
22176;SDS011;11254;50.098;8.726;2022-09-17T11:48:34;4.68;;;1.00;;
22176;SDS011;11254;50.098;8.726;2022-09-17T11:51:07;6.18;;;0.95;;
22176;SDS011;11254;50.098;8.726;2022-09-17T11:53:48;5.07;;;0.90;;
22176;SDS011;11254;50.098;8.726;2022-09-17T11:56:22;3.53;;;0.80;;
22176;SDS011;11254;50.098;8.726;2022-09-17T11:58:54;4.30;;;0.60;;
22176;SDS011;11254;50.098;8.726;2022-09-17T12:01:29;3.83;;;0.93;;
22176;SDS011;11254;50.098;8.726;2022-09-17T12:04:04;2.60;;;0.63;;
22176;SDS011;11254;50.098;8.726;2022-09-17T12:06:48;4.03;;;0.80;;
22176;SDS011;11254;50.098;8.726;2022-09-17T12:09:23;4.15;;;0.80;;
22176;SDS011;11254;50.098;8.726;2022-09-17T12:11:58;6.00;;;1.10;;
22176;SDS011;11254;50.098;8.726;2022-09-17T12:14:35;4.85;;;1.08;;
22176;SDS011;11254;50.098;8.726;2022-09-17T12:17:11;6.07;;;0.90;;
22176;SDS011;11254;50.098;8.726;2022-09-17T12:19:47;4.40;;;0.90;;
22176;SDS011;11254;50.098;8.726;2022-09-17T12:22:20;5.82;;;0.93;;
22176;SDS011;11254;50.098;8.726;2022-09-17T12:24:50;3.33;;;0.73;;
22176;SDS011;11254;50.098;8.726;2022-09-17T12:27:23;3.13;;;0.60;;
22176;SDS011;11254;50.098;8.726;2022-09-17T12:30:04;4.90;;;0.70;;
22176;SDS011;11254;50.098;8.726;2022-09-17T12:32:41;1.92;;;0.70;;
22176;SDS011;11254;50.098;8.726;2022-09-17T12:35:23;3.92;;;0.68;;
22176;SDS011;11254;50.098;8.726;2022-09-17T12:38:24;7.88;;;2.10;;
22176;SDS011;11254;50.098;8.726;2022-09-17T12:41:14;3.25;;;0.60;;
22176;SDS011;11254;50.098;8.726;2022-09-17T12:43:53;4.70;;;0.60;;
22176;SDS011;11254;50.098;8.726;2022-09-17T12:46:35;3.72;;;0.60;;
22176;SDS011;11254;50.098;8.726;2022-09-17T12:49:34;4.95;;;0.90;;
22176;SDS011;11254;50.098;8.726;2022-09-17T12:52:26;5.93;;;0.93;;
22176;SDS011;11254;50.098;8.726;2022-09-17T12:55:13;7.97;;;0.90;;
22176;SDS011;11254;50.098;8.726;2022-09-17T12:57:55;3.75;;;0.63;;
22176;SDS011;11254;50.098;8.726;2022-09-17T13:00:31;3.00;;;0.63;;
22176;SDS011;11254;50.098;8.726;2022-09-17T13:03:06;4.00;;;0.60;;
22176;SDS011;11254;50.098;8.726;2022-09-17T13:05:48;3.67;;;0.80;;
22176;SDS011;11254;50.098;8.726;2022-09-17T13:08:43;4.03;;;0.70;;
22176;SDS011;11254;50.098;8.726;2022-09-17T13:11:27;3.40;;;0.70;;
22176;SDS011;11254;50.098;8.726;2022-09-17T13:14:17;2.22;;;0.70;;
22176;SDS011;11254;50.098;8.726;2022-09-17T13:16:55;7.72;;;0.90;;
22176;SDS011;11254;50.098;8.726;2022-09-17T13:19:29;4.18;;;0.70;;
22176;SDS011;11254;50.098;8.726;2022-09-17T13:22:04;6.90;;;0.82;;
22176;SDS011;11254;50.098;8.726;2022-09-17T13:24:35;4.38;;;0.70;;
22176;SDS011;11254;50.098;8.726;2022-09-17T13:27:04;4.57;;;0.32;;
22176;SDS011;11254;50.098;8.726;2022-09-17T13:30:00;3.65;;;0.80;;
22176;SDS011;11254;50.098;8.726;2022-09-17T13:38:16;5.07;;;0.82;;
22176;SDS011;11254;50.098;8.726;2022-09-17T13:40:49;2.83;;;0.50;;
22176;SDS011;11254;50.098;8.726;2022-09-17T13:43:18;1.80;;;0.60;;
22176;SDS011;11254;50.098;8.726;2022-09-17T13:46:04;7.10;;;0.70;;
22176;SDS011;11254;50.098;8.726;2022-09-17T13:48:45;2.83;;;0.40;;
22176;SDS011;11254;50.098;8.726;2022-09-17T13:54:18;2.95;;;0.50;;
22176;SDS011;11254;50.098;8.726;2022-09-17T13:57:05;1.70;;;0.32;;
22176;SDS011;11254;50.098;8.726;2022-09-17T13:59:36;1.50;;;0.40;;
22176;SDS011;11254;50.098;8.726;2022-09-17T14:05:23;2.03;;;0.40;;
22176;SDS011;11254;50.098;8.726;2022-09-17T14:11:00;6.15;;;0.95;;
22176;SDS011;11254;50.098;8.726;2022-09-17T14:13:49;2.60;;;0.47;;
22176;SDS011;11254;50.098;8.726;2022-09-17T14:16:25;4.78;;;0.80;;
22176;SDS011;11254;50.098;8.726;2022-09-17T14:19:16;4.43;;;0.52;;
22176;SDS011;11254;50.098;8.726;2022-09-17T14:21:57;4.35;;;0.70;;
22176;SDS011;11254;50.098;8.726;2022-09-17T14:24:31;2.05;;;0.43;;
22176;SDS011;11254;50.098;8.726;2022-09-17T14:27:12;2.53;;;0.47;;
22176;SDS011;11254;50.098;8.726;2022-09-17T14:29:58;2.10;;;0.35;;
22176;SDS011;11254;50.098;8.726;2022-09-17T14:32:35;2.33;;;0.47;;
22176;SDS011;11254;50.098;8.726;2022-09-17T14:35:15;2.92;;;0.50;;
22176;SDS011;11254;50.098;8.726;2022-09-17T14:37:50;3.13;;;0.77;;
22176;SDS011;11254;50.098;8.726;2022-09-17T14:40:22;5.10;;;0.80;;
22176;SDS011;11254;50.098;8.726;2022-09-17T14:42:52;3.85;;;1.90;;
22176;SDS011;11254;50.098;8.726;2022-09-17T14:45:23;4.35;;;0.90;;
22176;SDS011;11254;50.098;8.726;2022-09-17T14:50:44;1.85;;;0.55;;
22176;SDS011;11254;50.098;8.726;2022-09-17T14:53:15;2.92;;;0.60;;
22176;SDS011;11254;50.098;8.726;2022-09-17T14:55:45;3.00;;;0.57;;
22176;SDS011;11254;50.098;8.726;2022-09-17T14:58:24;3.92;;;0.90;;
22176;SDS011;11254;50.098;8.726;2022-09-17T15:00:56;1.67;;;0.47;;
22176;SDS011;11254;50.098;8.726;2022-09-17T15:03:24;3.10;;;0.60;;
22176;SDS011;11254;50.098;8.726;2022-09-17T15:05:52;1.90;;;0.50;;
22176;SDS011;11254;50.098;8.726;2022-09-17T15:08:23;2.75;;;0.60;;
22176;SDS011;11254;50.098;8.726;2022-09-17T15:10:54;2.40;;;0.50;;
22176;SDS011;11254;50.098;8.726;2022-09-17T15:13:25;2.72;;;0.60;;
22176;SDS011;11254;50.098;8.726;2022-09-17T15:15:55;2.13;;;0.50;;
22176;SDS011;11254;50.098;8.726;2022-09-17T15:18:36;2.28;;;0.60;;
22176;SDS011;11254;50.098;8.726;2022-09-17T15:21:12;6.60;;;0.80;;
22176;SDS011;11254;50.098;8.726;2022-09-17T15:23:51;3.03;;;0.40;;
22176;SDS011;11254;50.098;8.726;2022-09-17T15:26:23;3.65;;;0.60;;
22176;SDS011;11254;50.098;8.726;2022-09-17T15:28:55;3.17;;;0.57;;
22176;SDS011;11254;50.098;8.726;2022-09-17T15:31:24;3.78;;;0.90;;
22176;SDS011;11254;50.098;8.726;2022-09-17T15:33:57;2.60;;;0.50;;
22176;SDS011;11254;50.098;8.726;2022-09-17T15:36:26;2.15;;;0.30;;
22176;SDS011;11254;50.098;8.726;2022-09-17T15:38:58;2.35;;;0.60;;
22176;SDS011;11254;50.098;8.726;2022-09-17T15:41:27;3.17;;;0.52;;